sensor_id;sensor_type;location;lat;lon;timestamp;P1;durP1;ratioP1;P2;durP2;ratioP2
19107;SDS011;9686;48.832;9.126;2023-05-23T00:00:54;25.67;;;17.53;;
19107;SDS011;9686;48.832;9.126;2023-05-23T00:03:19;29.93;;;19.20;;
19107;SDS011;9686;48.832;9.126;2023-05-23T00:05:46;27.40;;;20.10;;
19107;SDS011;9686;48.832;9.126;2023-05-23T00:08:13;28.10;;;19.03;;
19107;SDS011;9686;48.832;9.126;2023-05-23T00:10:38;30.93;;;20.43;;
19107;SDS011;9686;48.832;9.126;2023-05-23T00:13:03;28.60;;;19.67;;
19107;SDS011;9686;48.832;9.126;2023-05-23T00:15:29;27.73;;;19.83;;
19107;SDS011;9686;48.832;9.126;2023-05-23T00:17:55;26.70;;;19.67;;
19107;SDS011;9686;48.832;9.126;2023-05-23T00:20:20;33.00;;;20.57;;
19107;SDS011;9686;48.832;9.126;2023-05-23T00:22:45;30.63;;;19.90;;
19107;SDS011;9686;48.832;9.126;2023-05-23T00:25:12;31.37;;;20.53;;
19107;SDS011;9686;48.832;9.126;2023-05-23T00:27:37;30.03;;;20.07;;
19107;SDS011;9686;48.832;9.126;2023-05-23T00:30:03;28.63;;;20.27;;
19107;SDS011;9686;48.832;9.126;2023-05-23T00:32:29;30.43;;;20.40;;
19107;SDS011;9686;48.832;9.126;2023-05-23T00:34:54;30.57;;;20.70;;
19107;SDS011;9686;48.832;9.126;2023-05-23T00:37:20;29.23;;;20.53;;
19107;SDS011;9686;48.832;9.126;2023-05-23T00:39:46;32.00;;;22.40;;
19107;SDS011;9686;48.832;9.126;2023-05-23T00:42:12;29.57;;;20.17;;
19107;SDS011;9686;48.832;9.126;2023-05-23T00:44:37;30.73;;;21.33;;
19107;SDS011;9686;48.832;9.126;2023-05-23T00:47:02;29.63;;;20.53;;
19107;SDS011;9686;48.832;9.126;2023-05-23T00:49:28;32.67;;;21.80;;
19107;SDS011;9686;48.832;9.126;2023-05-23T00:51:54;31.37;;;20.83;;
19107;SDS011;9686;48.832;9.126;2023-05-23T00:54:23;31.73;;;20.07;;
19107;SDS011;9686;48.832;9.126;2023-05-23T00:56:51;30.97;;;21.63;;
19107;SDS011;9686;48.832;9.126;2023-05-23T00:59:17;32.80;;;22.23;;
19107;SDS011;9686;48.832;9.126;2023-05-23T01:01:45;33.00;;;21.57;;
19107;SDS011;9686;48.832;9.126;2023-05-23T01:04:12;35.00;;;23.40;;
19107;SDS011;9686;48.832;9.126;2023-05-23T01:06:37;35.07;;;22.63;;
19107;SDS011;9686;48.832;9.126;2023-05-23T01:09:04;34.33;;;22.90;;
19107;SDS011;9686;48.832;9.126;2023-05-23T01:11:43;37.17;;;23.47;;
19107;SDS011;9686;48.832;9.126;2023-05-23T01:14:23;37.37;;;24.53;;
19107;SDS011;9686;48.832;9.126;2023-05-23T01:16:56;35.17;;;23.33;;
19107;SDS011;9686;48.832;9.126;2023-05-23T01:22:14;37.73;;;23.83;;
19107;SDS011;9686;48.832;9.126;2023-05-23T01:30:12;38.27;;;24.27;;
19107;SDS011;9686;48.832;9.126;2023-05-23T01:32:41;40.70;;;26.57;;
19107;SDS011;9686;48.832;9.126;2023-05-23T01:35:07;40.03;;;25.67;;
19107;SDS011;9686;48.832;9.126;2023-05-23T01:37:34;36.47;;;24.60;;
19107;SDS011;9686;48.832;9.126;2023-05-23T01:39:59;38.27;;;25.40;;
19107;SDS011;9686;48.832;9.126;2023-05-23T01:42:25;39.60;;;25.17;;
19107;SDS011;9686;48.832;9.126;2023-05-23T01:44:52;37.60;;;26.73;;
19107;SDS011;9686;48.832;9.126;2023-05-23T01:47:17;41.93;;;27.27;;
19107;SDS011;9686;48.832;9.126;2023-05-23T01:49:43;34.23;;;24.60;;
19107;SDS011;9686;48.832;9.126;2023-05-23T01:52:09;40.03;;;26.73;;
19107;SDS011;9686;48.832;9.126;2023-05-23T01:54:36;42.10;;;27.87;;
19107;SDS011;9686;48.832;9.126;2023-05-23T01:57:03;44.97;;;26.97;;
19107;SDS011;9686;48.832;9.126;2023-05-23T01:59:29;40.93;;;27.33;;
19107;SDS011;9686;48.832;9.126;2023-05-23T02:01:54;42.17;;;27.20;;
19107;SDS011;9686;48.832;9.126;2023-05-23T02:04:20;44.30;;;30.30;;
19107;SDS011;9686;48.832;9.126;2023-05-23T02:06:45;41.50;;;29.57;;
19107;SDS011;9686;48.832;9.126;2023-05-23T02:09:11;40.87;;;28.30;;
19107;SDS011;9686;48.832;9.126;2023-05-23T02:11:36;45.17;;;30.73;;
19107;SDS011;9686;48.832;9.126;2023-05-23T02:14:02;48.53;;;31.60;;
19107;SDS011;9686;48.832;9.126;2023-05-23T02:16:27;49.50;;;31.73;;
19107;SDS011;9686;48.832;9.126;2023-05-23T02:18:52;45.80;;;30.10;;
19107;SDS011;9686;48.832;9.126;2023-05-23T02:21:20;45.00;;;31.47;;
19107;SDS011;9686;48.832;9.126;2023-05-23T02:23:46;47.97;;;30.83;;
19107;SDS011;9686;48.832;9.126;2023-05-23T02:26:11;41.43;;;29.73;;
19107;SDS011;9686;48.832;9.126;2023-05-23T02:28:37;46.97;;;30.33;;
19107;SDS011;9686;48.832;9.126;2023-05-23T02:31:02;49.47;;;31.97;;
19107;SDS011;9686;48.832;9.126;2023-05-23T02:33:27;48.00;;;31.90;;
19107;SDS011;9686;48.832;9.126;2023-05-23T02:35:53;47.27;;;31.10;;
19107;SDS011;9686;48.832;9.126;2023-05-23T02:38:19;50.13;;;31.90;;
19107;SDS011;9686;48.832;9.126;2023-05-23T02:40:44;47.70;;;30.53;;
19107;SDS011;9686;48.832;9.126;2023-05-23T02:43:10;46.37;;;32.13;;
19107;SDS011;9686;48.832;9.126;2023-05-23T02:45:35;44.97;;;31.73;;
19107;SDS011;9686;48.832;9.126;2023-05-23T02:48:00;44.93;;;30.60;;
19107;SDS011;9686;48.832;9.126;2023-05-23T02:50:25;45.77;;;32.13;;
19107;SDS011;9686;48.832;9.126;2023-05-23T02:52:51;45.97;;;31.83;;
19107;SDS011;9686;48.832;9.126;2023-05-23T02:55:16;46.03;;;32.30;;
19107;SDS011;9686;48.832;9.126;2023-05-23T02:57:41;46.37;;;32.17;;
19107;SDS011;9686;48.832;9.126;2023-05-23T03:00:07;43.97;;;30.47;;
19107;SDS011;9686;48.832;9.126;2023-05-23T03:02:34;46.87;;;32.50;;
19107;SDS011;9686;48.832;9.126;2023-05-23T03:04:59;41.93;;;30.17;;
19107;SDS011;9686;48.832;9.126;2023-05-23T03:07:25;48.73;;;31.17;;
19107;SDS011;9686;48.832;9.126;2023-05-23T03:09:50;43.77;;;30.47;;
19107;SDS011;9686;48.832;9.126;2023-05-23T03:12:16;44.67;;;30.87;;
19107;SDS011;9686;48.832;9.126;2023-05-23T03:14:41;43.50;;;30.20;;
19107;SDS011;9686;48.832;9.126;2023-05-23T03:17:07;38.63;;;27.97;;
19107;SDS011;9686;48.832;9.126;2023-05-23T03:19:32;42.30;;;29.13;;
19107;SDS011;9686;48.832;9.126;2023-05-23T03:21:57;40.60;;;28.97;;
19107;SDS011;9686;48.832;9.126;2023-05-23T03:24:22;42.20;;;28.00;;
19107;SDS011;9686;48.832;9.126;2023-05-23T03:26:48;42.60;;;27.63;;
19107;SDS011;9686;48.832;9.126;2023-05-23T03:29:13;37.63;;;27.63;;
19107;SDS011;9686;48.832;9.126;2023-05-23T03:31:38;39.63;;;28.47;;
19107;SDS011;9686;48.832;9.126;2023-05-23T03:34:03;40.83;;;28.93;;
19107;SDS011;9686;48.832;9.126;2023-05-23T03:36:32;43.57;;;29.13;;
19107;SDS011;9686;48.832;9.126;2023-05-23T03:38:58;42.33;;;28.97;;
19107;SDS011;9686;48.832;9.126;2023-05-23T03:41:23;37.80;;;27.93;;
19107;SDS011;9686;48.832;9.126;2023-05-23T03:43:48;41.57;;;29.10;;
19107;SDS011;9686;48.832;9.126;2023-05-23T03:46:14;41.77;;;29.83;;
19107;SDS011;9686;48.832;9.126;2023-05-23T03:48:39;41.13;;;29.47;;
19107;SDS011;9686;48.832;9.126;2023-05-23T03:51:04;40.07;;;29.37;;
19107;SDS011;9686;48.832;9.126;2023-05-23T03:53:30;38.47;;;26.97;;
19107;SDS011;9686;48.832;9.126;2023-05-23T03:55:55;37.90;;;27.30;;
19107;SDS011;9686;48.832;9.126;2023-05-23T03:58:20;38.13;;;27.27;;
19107;SDS011;9686;48.832;9.126;2023-05-23T04:00:45;35.87;;;27.40;;
19107;SDS011;9686;48.832;9.126;2023-05-23T04:03:11;35.37;;;27.77;;
19107;SDS011;9686;48.832;9.126;2023-05-23T04:05:39;36.07;;;27.27;;
19107;SDS011;9686;48.832;9.126;2023-05-23T04:08:04;39.60;;;28.13;;
19107;SDS011;9686;48.832;9.126;2023-05-23T04:10:30;37.40;;;27.57;;
19107;SDS011;9686;48.832;9.126;2023-05-23T04:12:56;37.43;;;27.00;;
19107;SDS011;9686;48.832;9.126;2023-05-23T04:15:21;37.03;;;27.00;;
19107;SDS011;9686;48.832;9.126;2023-05-23T04:17:46;38.03;;;27.53;;
19107;SDS011;9686;48.832;9.126;2023-05-23T04:20:11;36.37;;;27.43;;
19107;SDS011;9686;48.832;9.126;2023-05-23T04:22:37;37.50;;;26.17;;
19107;SDS011;9686;48.832;9.126;2023-05-23T04:25:02;37.77;;;26.03;;
19107;SDS011;9686;48.832;9.126;2023-05-23T04:27:28;36.30;;;27.13;;
19107;SDS011;9686;48.832;9.126;2023-05-23T04:29:54;34.93;;;25.60;;
19107;SDS011;9686;48.832;9.126;2023-05-23T04:32:22;39.13;;;26.27;;
19107;SDS011;9686;48.832;9.126;2023-05-23T04:34:47;36.30;;;26.80;;
19107;SDS011;9686;48.832;9.126;2023-05-23T04:37:13;36.83;;;27.27;;
19107;SDS011;9686;48.832;9.126;2023-05-23T04:39:39;34.77;;;26.33;;
19107;SDS011;9686;48.832;9.126;2023-05-23T04:42:04;34.93;;;25.73;;
19107;SDS011;9686;48.832;9.126;2023-05-23T04:44:31;34.80;;;26.80;;
19107;SDS011;9686;48.832;9.126;2023-05-23T04:46:57;35.67;;;27.17;;
19107;SDS011;9686;48.832;9.126;2023-05-23T04:49:23;34.17;;;26.97;;
19107;SDS011;9686;48.832;9.126;2023-05-23T04:51:48;36.90;;;27.37;;
19107;SDS011;9686;48.832;9.126;2023-05-23T04:54:13;34.07;;;26.20;;
19107;SDS011;9686;48.832;9.126;2023-05-23T04:56:39;32.07;;;26.00;;
19107;SDS011;9686;48.832;9.126;2023-05-23T04:59:04;32.13;;;25.73;;
19107;SDS011;9686;48.832;9.126;2023-05-23T05:01:32;35.87;;;26.40;;
19107;SDS011;9686;48.832;9.126;2023-05-23T05:03:58;38.23;;;26.37;;
19107;SDS011;9686;48.832;9.126;2023-05-23T05:06:23;36.03;;;25.90;;
19107;SDS011;9686;48.832;9.126;2023-05-23T05:08:48;32.80;;;25.57;;
19107;SDS011;9686;48.832;9.126;2023-05-23T05:11:14;28.33;;;22.07;;
19107;SDS011;9686;48.832;9.126;2023-05-23T05:13:39;33.60;;;24.77;;
19107;SDS011;9686;48.832;9.126;2023-05-23T05:16:04;32.97;;;25.60;;
19107;SDS011;9686;48.832;9.126;2023-05-23T05:18:30;34.03;;;26.43;;
19107;SDS011;9686;48.832;9.126;2023-05-23T05:20:55;35.30;;;26.93;;
19107;SDS011;9686;48.832;9.126;2023-05-23T05:23:25;34.77;;;26.80;;
19107;SDS011;9686;48.832;9.126;2023-05-23T05:25:54;32.73;;;25.53;;
19107;SDS011;9686;48.832;9.126;2023-05-23T05:28:20;33.07;;;26.50;;
19107;SDS011;9686;48.832;9.126;2023-05-23T05:30:46;33.17;;;25.37;;
19107;SDS011;9686;48.832;9.126;2023-05-23T05:33:12;34.13;;;26.73;;
19107;SDS011;9686;48.832;9.126;2023-05-23T05:35:37;34.00;;;26.03;;
19107;SDS011;9686;48.832;9.126;2023-05-23T05:38:03;33.50;;;24.57;;
19107;SDS011;9686;48.832;9.126;2023-05-23T05:40:29;34.43;;;26.57;;
19107;SDS011;9686;48.832;9.126;2023-05-23T05:42:55;34.67;;;25.83;;
19107;SDS011;9686;48.832;9.126;2023-05-23T05:45:20;29.47;;;25.07;;
19107;SDS011;9686;48.832;9.126;2023-05-23T05:47:45;36.67;;;25.73;;
19107;SDS011;9686;48.832;9.126;2023-05-23T05:50:11;33.67;;;26.87;;
19107;SDS011;9686;48.832;9.126;2023-05-23T05:52:36;35.23;;;26.67;;
19107;SDS011;9686;48.832;9.126;2023-05-23T05:55:03;32.80;;;25.70;;
19107;SDS011;9686;48.832;9.126;2023-05-23T05:57:32;31.67;;;24.97;;
19107;SDS011;9686;48.832;9.126;2023-05-23T05:59:58;34.77;;;26.33;;
19107;SDS011;9686;48.832;9.126;2023-05-23T06:02:23;34.00;;;25.67;;
19107;SDS011;9686;48.832;9.126;2023-05-23T06:04:48;31.77;;;25.80;;
19107;SDS011;9686;48.832;9.126;2023-05-23T06:07:14;34.00;;;27.47;;
19107;SDS011;9686;48.832;9.126;2023-05-23T06:09:39;30.10;;;25.20;;
19107;SDS011;9686;48.832;9.126;2023-05-23T06:12:04;33.00;;;26.80;;
19107;SDS011;9686;48.832;9.126;2023-05-23T06:14:30;36.13;;;26.93;;
19107;SDS011;9686;48.832;9.126;2023-05-23T06:16:55;32.87;;;26.63;;
19107;SDS011;9686;48.832;9.126;2023-05-23T06:19:20;32.57;;;28.07;;
19107;SDS011;9686;48.832;9.126;2023-05-23T06:21:46;34.40;;;26.00;;
19107;SDS011;9686;48.832;9.126;2023-05-23T06:24:11;30.53;;;25.40;;
19107;SDS011;9686;48.832;9.126;2023-05-23T06:26:36;30.60;;;25.70;;
19107;SDS011;9686;48.832;9.126;2023-05-23T06:29:02;31.90;;;25.60;;
19107;SDS011;9686;48.832;9.126;2023-05-23T06:31:28;34.13;;;25.47;;
19107;SDS011;9686;48.832;9.126;2023-05-23T06:33:53;31.53;;;25.50;;
19107;SDS011;9686;48.832;9.126;2023-05-23T06:36:19;28.47;;;24.23;;
19107;SDS011;9686;48.832;9.126;2023-05-23T06:38:44;32.27;;;24.80;;
19107;SDS011;9686;48.832;9.126;2023-05-23T06:41:11;28.47;;;23.43;;
19107;SDS011;9686;48.832;9.126;2023-05-23T06:43:36;29.83;;;24.60;;
19107;SDS011;9686;48.832;9.126;2023-05-23T06:46:02;27.73;;;24.40;;
19107;SDS011;9686;48.832;9.126;2023-05-23T06:48:27;31.67;;;24.83;;
19107;SDS011;9686;48.832;9.126;2023-05-23T06:50:52;26.57;;;22.27;;
19107;SDS011;9686;48.832;9.126;2023-05-23T06:53:17;32.23;;;24.63;;
19107;SDS011;9686;48.832;9.126;2023-05-23T06:55:43;27.43;;;23.80;;
19107;SDS011;9686;48.832;9.126;2023-05-23T06:58:08;28.60;;;23.10;;
19107;SDS011;9686;48.832;9.126;2023-05-23T07:00:33;26.47;;;21.63;;
19107;SDS011;9686;48.832;9.126;2023-05-23T07:02:59;26.00;;;21.90;;
19107;SDS011;9686;48.832;9.126;2023-05-23T07:05:27;26.27;;;21.00;;
19107;SDS011;9686;48.832;9.126;2023-05-23T07:07:52;22.27;;;19.17;;
19107;SDS011;9686;48.832;9.126;2023-05-23T07:10:18;22.10;;;19.33;;
19107;SDS011;9686;48.832;9.126;2023-05-23T07:12:44;23.37;;;19.03;;
19107;SDS011;9686;48.832;9.126;2023-05-23T07:15:10;24.93;;;19.30;;
19107;SDS011;9686;48.832;9.126;2023-05-23T07:17:35;22.33;;;18.43;;
19107;SDS011;9686;48.832;9.126;2023-05-23T07:20:01;20.97;;;18.13;;
19107;SDS011;9686;48.832;9.126;2023-05-23T07:22:26;18.33;;;15.63;;
19107;SDS011;9686;48.832;9.126;2023-05-23T07:24:52;18.80;;;15.87;;
19107;SDS011;9686;48.832;9.126;2023-05-23T07:27:17;19.47;;;16.87;;
19107;SDS011;9686;48.832;9.126;2023-05-23T07:29:42;18.40;;;16.47;;
19107;SDS011;9686;48.832;9.126;2023-05-23T07:32:08;19.63;;;16.80;;
19107;SDS011;9686;48.832;9.126;2023-05-23T07:34:33;21.70;;;19.40;;
19107;SDS011;9686;48.832;9.126;2023-05-23T07:36:58;27.40;;;22.50;;
19107;SDS011;9686;48.832;9.126;2023-05-23T07:39:23;26.17;;;21.50;;
19107;SDS011;9686;48.832;9.126;2023-05-23T07:41:49;24.20;;;20.73;;
19107;SDS011;9686;48.832;9.126;2023-05-23T07:44:15;22.03;;;19.70;;
19107;SDS011;9686;48.832;9.126;2023-05-23T07:46:42;22.20;;;19.40;;
19107;SDS011;9686;48.832;9.126;2023-05-23T07:49:08;20.30;;;18.10;;
19107;SDS011;9686;48.832;9.126;2023-05-23T07:51:33;18.87;;;16.87;;
19107;SDS011;9686;48.832;9.126;2023-05-23T07:53:58;17.53;;;15.60;;
19107;SDS011;9686;48.832;9.126;2023-05-23T07:56:24;16.10;;;14.40;;
19107;SDS011;9686;48.832;9.126;2023-05-23T07:58:50;16.50;;;14.80;;
19107;SDS011;9686;48.832;9.126;2023-05-23T08:01:15;16.53;;;14.30;;
19107;SDS011;9686;48.832;9.126;2023-05-23T08:03:42;15.07;;;13.47;;
19107;SDS011;9686;48.832;9.126;2023-05-23T08:06:07;15.63;;;13.23;;
19107;SDS011;9686;48.832;9.126;2023-05-23T08:08:33;16.07;;;13.20;;
19107;SDS011;9686;48.832;9.126;2023-05-23T08:10:58;16.40;;;14.50;;
19107;SDS011;9686;48.832;9.126;2023-05-23T08:13:23;18.13;;;14.97;;
19107;SDS011;9686;48.832;9.126;2023-05-23T08:15:49;16.70;;;14.77;;
19107;SDS011;9686;48.832;9.126;2023-05-23T08:18:14;16.77;;;14.60;;
19107;SDS011;9686;48.832;9.126;2023-05-23T08:20:40;15.60;;;13.87;;
19107;SDS011;9686;48.832;9.126;2023-05-23T08:23:06;16.40;;;14.10;;
19107;SDS011;9686;48.832;9.126;2023-05-23T08:25:31;14.30;;;12.80;;
19107;SDS011;9686;48.832;9.126;2023-05-23T08:27:57;14.37;;;12.87;;
19107;SDS011;9686;48.832;9.126;2023-05-23T08:30:23;15.40;;;13.80;;
19107;SDS011;9686;48.832;9.126;2023-05-23T08:32:52;14.90;;;13.23;;
19107;SDS011;9686;48.832;9.126;2023-05-23T08:35:19;15.13;;;13.13;;
19107;SDS011;9686;48.832;9.126;2023-05-23T08:37:45;15.07;;;13.43;;
19107;SDS011;9686;48.832;9.126;2023-05-23T08:40:20;14.17;;;12.40;;
19107;SDS011;9686;48.832;9.126;2023-05-23T08:42:50;14.23;;;12.73;;
19107;SDS011;9686;48.832;9.126;2023-05-23T08:45:15;14.13;;;12.70;;
19107;SDS011;9686;48.832;9.126;2023-05-23T08:47:42;15.43;;;13.03;;
19107;SDS011;9686;48.832;9.126;2023-05-23T08:50:12;16.67;;;12.70;;
19107;SDS011;9686;48.832;9.126;2023-05-23T08:52:55;15.60;;;13.47;;
19107;SDS011;9686;48.832;9.126;2023-05-23T08:55:22;13.57;;;12.17;;
19107;SDS011;9686;48.832;9.126;2023-05-23T08:57:51;15.33;;;13.07;;
19107;SDS011;9686;48.832;9.126;2023-05-23T09:00:17;14.50;;;13.00;;
19107;SDS011;9686;48.832;9.126;2023-05-23T09:02:43;14.80;;;13.27;;
19107;SDS011;9686;48.832;9.126;2023-05-23T09:05:10;14.87;;;13.27;;
19107;SDS011;9686;48.832;9.126;2023-05-23T09:07:36;17.20;;;12.40;;
19107;SDS011;9686;48.832;9.126;2023-05-23T09:10:05;13.53;;;12.10;;
19107;SDS011;9686;48.832;9.126;2023-05-23T09:12:32;16.50;;;12.63;;
19107;SDS011;9686;48.832;9.126;2023-05-23T09:15:01;13.23;;;11.53;;
19107;SDS011;9686;48.832;9.126;2023-05-23T09:17:31;13.00;;;11.17;;
19107;SDS011;9686;48.832;9.126;2023-05-23T09:19:57;12.60;;;11.30;;
19107;SDS011;9686;48.832;9.126;2023-05-23T09:22:23;14.37;;;12.23;;
19107;SDS011;9686;48.832;9.126;2023-05-23T09:24:50;11.97;;;10.27;;
19107;SDS011;9686;48.832;9.126;2023-05-23T09:27:17;14.47;;;10.67;;
19107;SDS011;9686;48.832;9.126;2023-05-23T09:29:42;12.33;;;11.03;;
19107;SDS011;9686;48.832;9.126;2023-05-23T09:32:11;12.93;;;10.60;;
19107;SDS011;9686;48.832;9.126;2023-05-23T09:34:41;12.00;;;10.60;;
19107;SDS011;9686;48.832;9.126;2023-05-23T09:37:07;11.90;;;10.70;;
19107;SDS011;9686;48.832;9.126;2023-05-23T09:39:35;11.03;;;9.53;;
19107;SDS011;9686;48.832;9.126;2023-05-23T09:42:01;10.73;;;9.63;;
19107;SDS011;9686;48.832;9.126;2023-05-23T09:44:27;11.13;;;10.00;;
19107;SDS011;9686;48.832;9.126;2023-05-23T09:46:52;10.63;;;9.53;;
19107;SDS011;9686;48.832;9.126;2023-05-23T09:49:18;10.50;;;8.93;;
19107;SDS011;9686;48.832;9.126;2023-05-23T09:51:43;11.47;;;10.27;;
19107;SDS011;9686;48.832;9.126;2023-05-23T09:54:20;10.10;;;9.10;;
19107;SDS011;9686;48.832;9.126;2023-05-23T09:56:45;9.43;;;8.43;;
19107;SDS011;9686;48.832;9.126;2023-05-23T09:59:11;10.80;;;8.83;;
19107;SDS011;9686;48.832;9.126;2023-05-23T10:01:40;10.13;;;8.77;;
19107;SDS011;9686;48.832;9.126;2023-05-23T10:04:08;9.40;;;8.43;;
19107;SDS011;9686;48.832;9.126;2023-05-23T10:06:40;9.93;;;8.93;;
19107;SDS011;9686;48.832;9.126;2023-05-23T10:09:12;9.43;;;8.53;;
19107;SDS011;9686;48.832;9.126;2023-05-23T10:14:34;9.40;;;8.47;;
19107;SDS011;9686;48.832;9.126;2023-05-23T10:17:09;8.70;;;7.90;;
19107;SDS011;9686;48.832;9.126;2023-05-23T10:19:42;10.27;;;7.93;;
19107;SDS011;9686;48.832;9.126;2023-05-23T10:22:12;8.23;;;7.17;;
19107;SDS011;9686;48.832;9.126;2023-05-23T10:24:39;8.10;;;7.17;;
19107;SDS011;9686;48.832;9.126;2023-05-23T10:27:06;7.57;;;6.87;;
19107;SDS011;9686;48.832;9.126;2023-05-23T10:29:31;8.03;;;7.23;;
19107;SDS011;9686;48.832;9.126;2023-05-23T10:32:00;8.00;;;7.20;;
19107;SDS011;9686;48.832;9.126;2023-05-23T10:37:16;8.13;;;6.93;;
19107;SDS011;9686;48.832;9.126;2023-05-23T10:42:55;10.50;;;7.80;;
19107;SDS011;9686;48.832;9.126;2023-05-23T10:45:29;8.13;;;7.33;;
19107;SDS011;9686;48.832;9.126;2023-05-23T10:48:06;8.73;;;6.93;;
19107;SDS011;9686;48.832;9.126;2023-05-23T10:50:44;7.83;;;7.07;;
19107;SDS011;9686;48.832;9.126;2023-05-23T10:53:10;7.10;;;6.40;;
19107;SDS011;9686;48.832;9.126;2023-05-23T10:55:40;7.93;;;6.77;;
19107;SDS011;9686;48.832;9.126;2023-05-23T10:58:15;7.00;;;6.33;;
19107;SDS011;9686;48.832;9.126;2023-05-23T11:00:54;8.43;;;6.27;;
19107;SDS011;9686;48.832;9.126;2023-05-23T11:04:05;6.27;;;5.67;;
19107;SDS011;9686;48.832;9.126;2023-05-23T11:06:08;6.50;;;5.90;;
19107;SDS011;9686;48.832;9.126;2023-05-23T11:09:00;7.70;;;5.57;;
19107;SDS011;9686;48.832;9.126;2023-05-23T11:11:50;6.30;;;5.70;;
19107;SDS011;9686;48.832;9.126;2023-05-23T11:14:18;6.53;;;5.80;;
19107;SDS011;9686;48.832;9.126;2023-05-23T11:16:54;6.80;;;6.20;;
19107;SDS011;9686;48.832;9.126;2023-05-23T11:19:24;8.10;;;5.93;;
19107;SDS011;9686;48.832;9.126;2023-05-23T11:24:46;8.03;;;7.23;;
19107;SDS011;9686;48.832;9.126;2023-05-23T11:27:16;8.10;;;7.30;;
19107;SDS011;9686;48.832;9.126;2023-05-23T11:29:55;8.37;;;7.53;;
19107;SDS011;9686;48.832;9.126;2023-05-23T11:32:22;8.27;;;7.47;;
19107;SDS011;9686;48.832;9.126;2023-05-23T11:34:47;8.60;;;7.80;;
19107;SDS011;9686;48.832;9.126;2023-05-23T11:37:13;8.67;;;6.73;;
19107;SDS011;9686;48.832;9.126;2023-05-23T11:39:39;7.80;;;7.00;;
19107;SDS011;9686;48.832;9.126;2023-05-23T11:42:04;8.83;;;7.43;;
19107;SDS011;9686;48.832;9.126;2023-05-23T11:44:30;8.27;;;6.70;;
19107;SDS011;9686;48.832;9.126;2023-05-23T11:47:01;8.23;;;7.43;;
19107;SDS011;9686;48.832;9.126;2023-05-23T11:49:28;8.33;;;7.53;;
19107;SDS011;9686;48.832;9.126;2023-05-23T11:52:00;7.77;;;6.97;;
19107;SDS011;9686;48.832;9.126;2023-05-23T11:54:26;7.83;;;7.03;;
19107;SDS011;9686;48.832;9.126;2023-05-23T11:56:53;7.27;;;6.57;;
19107;SDS011;9686;48.832;9.126;2023-05-23T11:59:19;6.00;;;5.50;;
19107;SDS011;9686;48.832;9.126;2023-05-23T12:01:45;7.20;;;6.50;;
19107;SDS011;9686;48.832;9.126;2023-05-23T12:04:11;6.60;;;5.93;;
19107;SDS011;9686;48.832;9.126;2023-05-23T12:06:39;6.57;;;5.83;;
19107;SDS011;9686;48.832;9.126;2023-05-23T12:09:05;6.73;;;6.13;;
19107;SDS011;9686;48.832;9.126;2023-05-23T12:11:37;6.53;;;5.90;;
19107;SDS011;9686;48.832;9.126;2023-05-23T12:14:05;6.17;;;5.63;;
19107;SDS011;9686;48.832;9.126;2023-05-23T12:16:33;5.77;;;5.27;;
19107;SDS011;9686;48.832;9.126;2023-05-23T12:19:00;6.40;;;5.80;;
19107;SDS011;9686;48.832;9.126;2023-05-23T12:21:48;6.57;;;5.97;;
19107;SDS011;9686;48.832;9.126;2023-05-23T12:29:28;5.80;;;5.30;;
19107;SDS011;9686;48.832;9.126;2023-05-23T12:31:59;5.73;;;5.13;;
19107;SDS011;9686;48.832;9.126;2023-05-23T12:34:28;4.90;;;4.50;;
19107;SDS011;9686;48.832;9.126;2023-05-23T12:36:57;5.07;;;4.57;;
19107;SDS011;9686;48.832;9.126;2023-05-23T12:39:26;4.60;;;4.20;;
19107;SDS011;9686;48.832;9.126;2023-05-23T12:42:09;5.33;;;4.83;;
19107;SDS011;9686;48.832;9.126;2023-05-23T12:44:35;5.37;;;4.87;;
19107;SDS011;9686;48.832;9.126;2023-05-23T12:47:01;4.97;;;4.53;;
19107;SDS011;9686;48.832;9.126;2023-05-23T12:49:27;4.80;;;4.40;;
19107;SDS011;9686;48.832;9.126;2023-05-23T12:51:53;6.03;;;5.00;;
19107;SDS011;9686;48.832;9.126;2023-05-23T12:54:18;5.13;;;4.63;;
19107;SDS011;9686;48.832;9.126;2023-05-23T12:56:45;5.13;;;4.63;;
19107;SDS011;9686;48.832;9.126;2023-05-23T12:59:10;4.30;;;3.90;;
19107;SDS011;9686;48.832;9.126;2023-05-23T13:01:36;4.37;;;4.03;;
19107;SDS011;9686;48.832;9.126;2023-05-23T13:04:02;4.53;;;4.03;;
19107;SDS011;9686;48.832;9.126;2023-05-23T13:06:28;4.20;;;3.80;;
19107;SDS011;9686;48.832;9.126;2023-05-23T13:08:54;4.30;;;3.90;;
19107;SDS011;9686;48.832;9.126;2023-05-23T13:11:23;4.40;;;3.90;;
19107;SDS011;9686;48.832;9.126;2023-05-23T13:13:49;4.50;;;4.10;;
19107;SDS011;9686;48.832;9.126;2023-05-23T13:16:16;3.80;;;3.50;;
19107;SDS011;9686;48.832;9.126;2023-05-23T13:18:43;4.10;;;3.73;;
19107;SDS011;9686;48.832;9.126;2023-05-23T13:21:09;5.10;;;4.07;;
19107;SDS011;9686;48.832;9.126;2023-05-23T13:23:36;4.60;;;3.90;;
19107;SDS011;9686;48.832;9.126;2023-05-23T13:26:04;4.17;;;3.77;;
19107;SDS011;9686;48.832;9.126;2023-05-23T13:28:31;4.13;;;3.60;;
19107;SDS011;9686;48.832;9.126;2023-05-23T13:30:58;3.53;;;3.23;;
19107;SDS011;9686;48.832;9.126;2023-05-23T13:33:24;6.10;;;3.20;;
19107;SDS011;9686;48.832;9.126;2023-05-23T13:35:50;3.93;;;3.13;;
19107;SDS011;9686;48.832;9.126;2023-05-23T13:38:17;4.53;;;3.30;;
19107;SDS011;9686;48.832;9.126;2023-05-23T13:40:43;3.43;;;3.13;;
19107;SDS011;9686;48.832;9.126;2023-05-23T13:43:09;3.40;;;3.10;;
19107;SDS011;9686;48.832;9.126;2023-05-23T13:45:35;3.60;;;3.30;;
19107;SDS011;9686;48.832;9.126;2023-05-23T13:48:01;4.30;;;3.20;;
19107;SDS011;9686;48.832;9.126;2023-05-23T13:50:27;3.60;;;3.30;;
19107;SDS011;9686;48.832;9.126;2023-05-23T13:52:52;4.00;;;3.50;;
19107;SDS011;9686;48.832;9.126;2023-05-23T13:55:18;3.73;;;3.37;;
19107;SDS011;9686;48.832;9.126;2023-05-23T13:57:44;3.37;;;3.07;;
19107;SDS011;9686;48.832;9.126;2023-05-23T14:00:10;3.80;;;3.50;;
19107;SDS011;9686;48.832;9.126;2023-05-23T14:02:36;3.23;;;2.93;;
19107;SDS011;9686;48.832;9.126;2023-05-23T14:05:02;4.10;;;3.70;;
19107;SDS011;9686;48.832;9.126;2023-05-23T14:07:28;4.00;;;3.60;;
19107;SDS011;9686;48.832;9.126;2023-05-23T14:09:54;3.10;;;2.90;;
19107;SDS011;9686;48.832;9.126;2023-05-23T14:12:21;3.63;;;3.33;;
19107;SDS011;9686;48.832;9.126;2023-05-23T14:14:47;3.90;;;3.50;;
19107;SDS011;9686;48.832;9.126;2023-05-23T14:17:15;3.40;;;3.10;;
19107;SDS011;9686;48.832;9.126;2023-05-23T14:19:40;3.50;;;3.20;;
19107;SDS011;9686;48.832;9.126;2023-05-23T14:22:06;3.83;;;3.37;;
19107;SDS011;9686;48.832;9.126;2023-05-23T14:24:31;3.60;;;3.30;;
19107;SDS011;9686;48.832;9.126;2023-05-23T14:26:56;3.37;;;3.07;;
19107;SDS011;9686;48.832;9.126;2023-05-23T14:29:22;3.77;;;3.47;;
19107;SDS011;9686;48.832;9.126;2023-05-23T14:31:47;3.17;;;2.87;;
19107;SDS011;9686;48.832;9.126;2023-05-23T14:36:40;3.90;;;3.50;;
19107;SDS011;9686;48.832;9.126;2023-05-23T14:39:05;4.33;;;3.93;;
19107;SDS011;9686;48.832;9.126;2023-05-23T14:41:31;4.10;;;3.70;;
19107;SDS011;9686;48.832;9.126;2023-05-23T14:43:57;3.50;;;3.20;;
19107;SDS011;9686;48.832;9.126;2023-05-23T14:46:22;4.03;;;3.63;;
19107;SDS011;9686;48.832;9.126;2023-05-23T14:48:47;3.93;;;2.83;;
19107;SDS011;9686;48.832;9.126;2023-05-23T14:51:13;2.60;;;2.40;;
19107;SDS011;9686;48.832;9.126;2023-05-23T14:53:38;3.57;;;2.80;;
19107;SDS011;9686;48.832;9.126;2023-05-23T14:56:03;3.00;;;2.80;;
19107;SDS011;9686;48.832;9.126;2023-05-23T14:58:28;2.97;;;2.73;;
19107;SDS011;9686;48.832;9.126;2023-05-23T15:00:54;4.03;;;3.30;;
19107;SDS011;9686;48.832;9.126;2023-05-23T15:03:20;3.83;;;3.43;;
19107;SDS011;9686;48.832;9.126;2023-05-23T15:05:45;3.47;;;3.17;;
19107;SDS011;9686;48.832;9.126;2023-05-23T15:08:11;3.20;;;2.90;;